Skip Navigation Links
NOAA logo - Click to go to the NOAA homepage
NOAA's National Weather Service
Alaska Aviation Weather Unit
  NWS logo - Click to go to the NWS homepage
Left Navbar Graphic     22 AKDT = 06 GMT

   
NOAA is celebrating 200 years of science, service, and stewardship. Visit the NOAA 200th celebration Web site to learn more.
USA.gov is the U.S. Government's official Web portal to all Federal, state and local government Web resources and services.
Facebook
NWS on Facebook

Important Change Regarding the AAWU Web Presence

 

Over the last several months, the AAWU has been working to navigate its webpages to a nationally supported server. Security, as well as other needs, have necessitated the change.  In the process, we have made an effort to enhance the functionality of our website, as well as some of our products. As of June 20, 2017, aawu.arh.noaa.gov will be discontinued. The new AAWU web address is weather.gov/aawu. It is now live and will run in-parallel with the old site until it is discontinued. Please send any feedback or questions regarding the new webpages to nws.ar.aawu.webauthors@noaa.gov.  Thank you for your patience during this time of transition.
AAWU Home :: Display TAF Add Bookmark
TAF PATA 280537Z 2806/2906 13004KT P6SM BKN100
     FM282000 11013G20KT P6SM BKN100=
PATA 280052Z 20003KT 10SM SCT070 BKN090 10/30 A3001 RMK AO2 SLP166
     T01001011 $=

METAR PATA 280152Z 14004KT 10SM BKN080 BKN100 14/M03 A3000 RMK AO2
     SLP163 T01391028 $=

METAR PATA 280252Z 14008KT 10SM BKN080 BKN100 13/00 A2999 RMK AO2 SLP159
     T01280000 $=

METAR PATA 280352Z 22004KT 10SM BKN090 12/01 A2999 RMK AO2 SLP157
     T01220011 $=

METAR PATA 280452Z 13004KT 10SM BKN100 12/M01 A2999 RMK AO2 SLP158
     T01221006 $=

METAR PATA 280552Z AUTO 00000KT 10SM CLR 11/01 A2999 RMK AO2 SLP158
     T01060011 10144 20100 56002 TSNO $=


NOAA's National Weather Service
Alaska Aviation Weather Unit
6930 Sand Lake Road
Anchorage, AK 99502-1845
Disclaimer
Credits
Glossary
Privacy Policy
About Us
Career Opportunities
Contact AAWU Internet Services Site last modified: April, 17th 2012